Time;durP1;ratioP1;P1;durP2;ratioP2;P2;SDS_P1;SDS_P2;PMS_P1;PMS_P2;Temp;Humidity;BMP_temperature;BMP_pressure;BME280_temperature;BME280_humidity;BME280_pressure;Samples;Min_cycle;Max_cycle;Signal;HPM_P1;HPM_P2
2022/07/17 00:00:42;;;;;;;3.42;2.42;;;21.60;85.50;;;;;;7392974;19;20138;-81
2022/07/17 00:03:16;;;;;;;6.28;2.70;;;21.60;85.50;;;;;;7390109;19;20183;-79
2022/07/17 00:05:43;;;;;;;4.30;2.65;;;21.60;85.80;;;;;;7389627;19;20170;-80
2022/07/17 00:08:10;;;;;;;7.20;3.38;;;21.40;85.90;;;;;;7391762;19;20131;-79
2022/07/17 00:10:39;;;;;;;3.90;2.78;;;21.30;86.30;;;;;;7390041;19;20169;-80
2022/07/17 00:13:05;;;;;;;4.60;2.80;;;21.10;87.40;;;;;;7385305;19;20141;-80
2022/07/17 00:15:32;;;;;;;5.40;2.85;;;21.10;87.80;;;;;;7393360;19;20150;-80
2022/07/17 00:17:58;;;;;;;4.65;2.85;;;21.00;87.90;;;;;;7388762;19;20209;-79
2022/07/17 00:20:25;;;;;;;4.07;2.67;;;21.10;88.30;;;;;;7392655;19;20158;-80
2022/07/17 00:22:55;;;;;;;4.03;2.72;;;21.20;89.00;;;;;;7387830;19;20138;-80
2022/07/17 00:25:22;;;;;;;3.65;2.13;;;21.10;88.00;;;;;;7390704;19;20147;-79
2022/07/17 00:27:48;;;;;;;3.17;2.20;;;21.20;87.90;;;;;;7387739;19;20671;-80
2022/07/17 00:30:14;;;;;;;3.70;2.30;;;21.20;87.30;;;;;;7388750;19;20153;-78
2022/07/17 00:32:40;;;;;;;3.50;2.28;;;21.40;87.00;;;;;;7392277;19;20127;-81
2022/07/17 00:35:07;;;;;;;4.25;2.20;;;21.30;87.60;;;;;;7394489;19;20164;-78
2022/07/17 00:37:44;;;;;;;3.05;2.05;;;21.40;87.20;;;;;;7392963;19;20159;-80
2022/07/17 00:40:12;;;;;;;3.58;1.92;;;21.30;87.10;;;;;;7390277;19;20150;-80
2022/07/17 00:42:41;;;;;;;3.40;2.30;;;21.20;87.30;;;;;;7388023;19;20130;-79
2022/07/17 00:45:12;;;;;;;2.53;1.92;;;21.10;87.90;;;;;;7390861;19;20131;-79
2022/07/17 00:47:55;;;;;;;2.70;1.92;;;21.10;88.00;;;;;;7395452;19;20126;-81
2022/07/17 00:50:28;;;;;;;4.55;2.42;;;21.10;87.90;;;;;;7388061;19;20166;-77
2022/07/17 00:52:53;;;;;;;3.55;2.63;;;20.90;88.30;;;;;;7390397;19;20230;-81
2022/07/17 00:55:19;;;;;;;7.88;1.90;;;21.10;87.80;;;;;;7385579;19;20134;-81
2022/07/17 00:57:47;;;;;;;4.40;2.40;;;21.00;87.90;;;;;;7392107;19;20142;-82
2022/07/17 01:00:15;;;;;;;3.15;2.10;;;20.50;89.60;;;;;;7391885;19;20145;-75
2022/07/17 01:02:45;;;;;;;3.45;2.15;;;20.10;90.20;;;;;;7388106;19;20127;-74
2022/07/17 01:05:11;;;;;;;3.00;2.00;;;19.90;90.70;;;;;;7390031;19;20142;-74
2022/07/17 01:07:37;;;;;;;2.20;2.00;;;19.80;91.20;;;;;;7388853;19;20593;-75
2022/07/17 01:10:03;;;;;;;6.07;2.63;;;20.20;90.80;;;;;;7385789;19;20154;-75
2022/07/17 01:12:32;;;;;;;5.15;2.45;;;20.70;90.50;;;;;;7388436;19;20150;-74
2022/07/17 01:14:59;;;;;;;7.07;2.55;;;20.80;90.20;;;;;;7386272;19;20154;-75
2022/07/17 01:17:25;;;;;;;4.75;2.13;;;20.70;90.30;;;;;;7387413;19;20207;-75
2022/07/17 01:19:51;;;;;;;2.25;1.90;;;20.70;90.30;;;;;;7387337;19;20184;-74
2022/07/17 01:22:17;;;;;;;3.63;2.05;;;20.70;90.50;;;;;;7389112;19;20159;-75
2022/07/17 01:24:43;;;;;;;5.22;2.60;;;20.30;90.70;;;;;;7384738;19;20180;-74
2022/07/17 01:27:08;;;;;;;5.40;2.60;;;19.90;91.20;;;;;;7389660;19;20174;-76
2022/07/17 01:29:38;;;;;;;5.32;2.47;;;20.10;91.60;;;;;;7391445;19;20591;-75
2022/07/17 01:32:05;;;;;;;5.65;2.85;;;20.30;91.30;;;;;;7387084;19;20175;-74
2022/07/17 01:34:31;;;;;;;3.40;2.55;;;20.50;91.20;;;;;;7388941;19;20502;-74
2022/07/17 01:36:57;;;;;;;3.60;2.50;;;20.60;91.20;;;;;;7391508;19;20149;-75
2022/07/17 01:39:56;;;;;;;3.67;2.88;;;20.70;91.00;;;;;;7390508;19;20158;-75
2022/07/17 01:42:15;;;;;;;3.38;2.00;;;20.60;91.30;;;;;;7391161;19;20923;-75
2022/07/17 01:44:41;;;;;;;2.72;2.28;;;20.70;91.10;;;;;;7390857;19;20142;-75
2022/07/17 01:47:06;;;;;;;4.70;2.70;;;20.50;92.00;;;;;;7390091;19;20618;-75
2022/07/17 01:49:32;;;;;;;4.50;2.70;;;20.40;92.00;;;;;;7389784;19;20584;-75
2022/07/17 01:51:59;;;;;;;5.65;2.50;;;20.50;91.90;;;;;;7391468;19;20205;-76
2022/07/17 01:54:31;;;;;;;3.58;2.65;;;20.30;92.20;;;;;;7387577;19;20711;-74
2022/07/17 01:56:57;;;;;;;2.88;2.47;;;20.40;92.30;;;;;;7393014;19;20585;-75
2022/07/17 01:59:23;;;;;;;4.18;2.83;;;20.50;92.10;;;;;;7386203;19;20139;-75
2022/07/17 02:01:49;;;;;;;4.45;2.60;;;20.40;92.40;;;;;;7388537;19;20150;-75
2022/07/17 02:04:14;;;;;;;4.25;2.78;;;20.30;92.60;;;;;;7388152;19;20130;-75
2022/07/17 02:06:40;;;;;;;3.03;2.38;;;20.30;92.80;;;;;;7389354;19;20603;-76
2022/07/17 02:09:06;;;;;;;8.43;2.95;;;20.30;92.90;;;;;;7387375;19;20134;-74
2022/07/17 02:11:31;;;;;;;4.35;2.97;;;20.30;93.00;;;;;;7391772;19;20125;-75
2022/07/17 02:13:57;;;;;;;4.85;2.40;;;20.30;93.10;;;;;;7389624;19;20142;-74
2022/07/17 02:16:23;;;;;;;5.45;2.70;;;20.30;93.30;;;;;;7387115;19;20130;-74
2022/07/17 02:18:49;;;;;;;4.57;2.83;;;20.30;93.30;;;;;;7387913;19;20142;-75
2022/07/17 02:21:14;;;;;;;3.92;2.75;;;20.30;93.60;;;;;;7387484;19;20166;-76
2022/07/17 02:23:40;;;;;;;6.50;3.15;;;20.10;93.30;;;;;;7384695;19;20155;-76
2022/07/17 02:26:06;;;;;;;4.10;2.85;;;19.70;94.10;;;;;;7386325;19;20534;-75
2022/07/17 02:28:32;;;;;;;3.20;2.35;;;19.70;94.60;;;;;;7393952;19;20142;-74
2022/07/17 02:30:57;;;;;;;5.63;2.42;;;19.90;94.00;;;;;;7396150;19;20135;-75
2022/07/17 02:33:23;;;;;;;6.80;2.83;;;20.10;93.40;;;;;;7394544;19;20169;-74
2022/07/17 02:35:49;;;;;;;5.30;2.67;;;20.00;93.70;;;;;;7394077;19;20146;-80
2022/07/17 02:38:15;;;;;;;3.65;2.63;;;19.60;94.20;;;;;;7395104;19;20131;-80
2022/07/17 02:40:41;;;;;;;5.95;2.55;;;19.60;94.30;;;;;;7394098;19;20230;-81
2022/07/17 02:43:07;;;;;;;3.42;2.50;;;19.20;94.90;;;;;;7393638;19;20187;-80
2022/07/17 02:45:33;;;;;;;2.85;2.22;;;18.90;95.80;;;;;;7398025;19;20130;-79
2022/07/17 02:47:59;;;;;;;5.05;2.63;;;18.70;96.30;;;;;;7395734;19;20135;-81
2022/07/17 02:50:25;;;;;;;3.65;2.63;;;18.70;97.00;;;;;;7397795;19;20119;-81
2022/07/17 02:52:51;;;;;;;7.70;2.97;;;19.00;96.70;;;;;;7395320;19;20127;-80
2022/07/17 02:55:17;;;;;;;4.05;2.75;;;19.40;96.30;;;;;;7394679;19;20130;-81
2022/07/17 02:57:43;;;;;;;3.90;2.95;;;19.60;96.00;;;;;;7395967;19;20239;-80
2022/07/17 03:00:12;;;;;;;3.67;2.88;;;19.80;96.00;;;;;;7393549;19;20155;-79
2022/07/17 03:02:39;;;;;;;3.20;2.63;;;19.80;95.80;;;;;;7393831;19;20138;-80
2022/07/17 03:05:05;;;;;;;4.05;2.55;;;19.90;95.80;;;;;;7395089;19;20157;-81
2022/07/17 03:07:31;;;;;;;3.53;2.20;;;20.00;94.80;;;;;;7393300;19;20591;-80
2022/07/17 03:09:56;;;;;;;3.05;2.50;;;20.00;94.90;;;;;;7395956;19;20144;-81
2022/07/17 03:12:22;;;;;;;3.13;2.42;;;19.90;95.20;;;;;;7393255;19;20145;-81
2022/07/17 03:14:48;;;;;;;2.65;2.17;;;19.90;95.20;;;;;;7395125;19;20131;-81
2022/07/17 03:17:14;;;;;;;3.17;2.15;;;19.90;95.00;;;;;;7395051;19;20556;-79
2022/07/17 03:19:40;;;;;;;4.82;2.10;;;19.90;94.80;;;;;;7393218;19;20624;-79
2022/07/17 03:22:06;;;;;;;4.13;2.13;;;19.90;94.60;;;;;;7393175;19;20146;-82
2022/07/17 03:24:31;;;;;;;3.97;2.50;;;19.90;94.40;;;;;;7394413;19;20142;-82
2022/07/17 03:26:58;;;;;;;6.97;3.13;;;19.90;94.50;;;;;;7390045;19;20621;-81
2022/07/17 03:29:24;;;;;;;3.47;2.58;;;19.90;94.50;;;;;;7393224;19;20874;-81
2022/07/17 03:31:49;;;;;;;4.38;2.10;;;19.80;94.70;;;;;;7394083;19;20145;-81
2022/07/17 03:34:15;;;;;;;3.58;2.83;;;19.50;95.60;;;;;;7391837;19;20155;-80
2022/07/17 03:36:41;;;;;;;3.90;2.45;;;19.30;96.30;;;;;;7393490;19;20127;-81
2022/07/17 03:39:07;;;;;;;4.18;2.67;;;19.00;96.80;;;;;;7390967;19;20127;-80
2022/07/17 03:41:33;;;;;;;5.45;3.13;;;18.80;97.70;;;;;;7393593;19;20162;-80
2022/07/17 03:43:59;;;;;;;4.13;2.47;;;18.90;97.90;;;;;;7395768;19;20234;-81
2022/07/17 03:46:25;;;;;;;4.15;2.58;;;19.20;97.40;;;;;;7394217;19;20154;-81
2022/07/17 03:48:52;;;;;;;2.65;2.20;;;19.30;97.20;;;;;;7393677;19;20165;-80
2022/07/17 03:51:18;;;;;;;5.97;3.05;;;19.50;96.70;;;;;;7392291;19;20227;-81
2022/07/17 03:53:44;;;;;;;3.78;2.70;;;19.20;97.30;;;;;;7392821;19;20134;-81
2022/07/17 03:56:10;;;;;;;3.78;2.75;;;19.00;98.80;;;;;;7394681;19;20246;-82
2022/07/17 03:58:36;;;;;;;3.97;3.00;;;19.20;98.40;;;;;;7390592;19;20214;-80
2022/07/17 04:01:02;;;;;;;3.00;2.67;;;19.50;97.80;;;;;;7395047;19;20496;-81
2022/07/17 04:03:28;;;;;;;6.55;3.00;;;19.60;97.80;;;;;;7391659;19;20142;-83
2022/07/17 04:05:54;;;;;;;5.95;3.53;;;19.60;97.90;;;;;;7394937;19;20470;-81
2022/07/17 04:08:20;;;;;;;6.30;3.40;;;19.50;98.20;;;;;;7391554;19;20230;-82
2022/07/17 04:10:46;;;;;;;2.97;2.65;;;19.50;98.40;;;;;;7392781;19;20158;-82
2022/07/17 04:13:12;;;;;;;3.20;2.85;;;19.50;98.50;;;;;;7390161;19;20154;-83
2022/07/17 04:15:55;;;;;;;4.05;2.55;;;19.50;98.40;;;;;;7391730;19;20451;-82
2022/07/17 04:18:27;;;;;;;5.22;2.80;;;19.50;98.60;;;;;;7390770;19;20147;-81
2022/07/17 04:20:55;;;;;;;3.88;2.83;;;19.50;98.60;;;;;;7390051;19;20150;-82
2022/07/17 04:23:21;;;;;;;4.60;2.95;;;19.50;98.70;;;;;;7390045;19;20963;-80
2022/07/17 04:25:47;;;;;;;6.07;3.40;;;19.50;99.00;;;;;;7391426;19;20253;-81
2022/07/17 04:28:13;;;;;;;3.95;2.60;;;19.50;98.90;;;;;;7392378;19;20163;-79
2022/07/17 04:30:39;;;;;;;4.85;3.20;;;19.50;98.90;;;;;;7390770;19;20628;-81
2022/07/17 04:33:05;;;;;;;4.05;2.70;;;19.50;99.20;;;;;;7393305;19;20146;-81
2022/07/17 04:35:31;;;;;;;3.97;2.80;;;19.40;99.10;;;;;;7391215;19;20186;-81
2022/07/17 04:37:57;;;;;;;5.25;2.90;;;19.40;99.30;;;;;;7392993;19;20176;-81
2022/07/17 04:40:23;;;;;;;5.90;2.58;;;19.40;99.50;;;;;;7391334;19;20135;-80
2022/07/17 04:42:49;;;;;;;3.42;2.70;;;19.20;99.90;;;;;;7392075;19;20147;-80
2022/07/17 04:45:15;;;;;;;3.80;2.97;;;19.10;99.90;;;;;;7392828;19;20225;-81
2022/07/17 04:47:41;;;;;;;4.82;2.95;;;19.20;99.90;;;;;;7393822;19;20547;-78
2022/07/17 04:50:08;;;;;;;4.53;3.10;;;19.30;99.90;;;;;;7391058;19;20154;-82
2022/07/17 04:52:34;;;;;;;4.47;2.88;;;19.40;99.90;;;;;;7389766;19;20145;-81
2022/07/17 04:55:00;;;;;;;4.75;2.78;;;19.40;99.90;;;;;;7391281;19;20158;-82
2022/07/17 04:57:26;;;;;;;3.35;2.60;;;19.40;99.90;;;;;;7391942;19;20490;-79
2022/07/17 04:59:52;;;;;;;3.10;2.78;;;19.30;99.90;;;;;;7392397;19;20634;-81
2022/07/17 05:02:18;;;;;;;4.05;3.22;;;19.50;99.90;;;;;;7390645;19;20172;-80
2022/07/17 05:04:44;;;;;;;5.03;3.30;;;19.50;99.90;;;;;;7387230;19;20142;-82
2022/07/17 05:07:09;;;;;;;4.68;2.97;;;19.50;99.90;;;;;;7389879;19;20134;-81
2022/07/17 05:09:35;;;;;;;3.78;2.70;;;19.60;99.80;;;;;;7389944;19;20198;-79
2022/07/17 05:12:02;;;;;;;4.60;3.00;;;19.60;99.80;;;;;;7390230;19;20126;-81
2022/07/17 05:14:27;;;;;;;3.75;2.70;;;19.50;99.80;;;;;;7390611;19;20467;-81
2022/07/17 05:16:53;;;;;;;5.72;3.30;;;19.50;99.80;;;;;;7392549;19;20142;-82
2022/07/17 05:19:19;;;;;;;6.20;2.58;;;19.30;99.90;;;;;;7389206;19;20174;-82
2022/07/17 05:21:45;;;;;;;3.53;3.00;;;19.40;99.90;;;;;;7389771;19;20145;-81
2022/07/17 05:24:11;;;;;;;4.07;3.10;;;19.50;99.90;;;;;;7393781;19;20168;-82
2022/07/17 05:26:37;;;;;;;5.13;3.45;;;19.50;99.90;;;;;;7389906;19;20185;-80
2022/07/17 05:29:03;;;;;;;3.92;3.13;;;19.40;99.90;;;;;;7391078;19;20142;-80
2022/07/17 05:31:29;;;;;;;7.43;2.85;;;19.40;99.90;;;;;;7390576;19;20142;-81
2022/07/17 05:33:55;;;;;;;5.00;3.05;;;19.40;99.90;;;;;;7389649;19;20162;-81
2022/07/17 05:36:20;;;;;;;4.28;3.25;;;19.50;99.90;;;;;;7390167;19;20205;-80
2022/07/17 05:38:46;;;;;;;4.72;3.08;;;19.40;99.90;;;;;;7391492;19;20143;-82
2022/07/17 05:41:12;;;;;;;6.53;3.10;;;19.50;99.90;;;;;;7391331;19;20142;-81
2022/07/17 05:43:38;;;;;;;6.88;3.55;;;19.40;99.90;;;;;;7387347;19;20130;-81
2022/07/17 05:46:04;;;;;;;4.75;3.22;;;19.50;99.90;;;;;;7388922;19;20143;-81
2022/07/17 05:48:31;;;;;;;4.97;3.33;;;19.50;99.90;;;;;;7387802;19;20880;-81
2022/07/17 05:50:57;;;;;;;3.90;3.28;;;19.50;99.90;;;;;;7388620;19;20229;-81
2022/07/17 05:53:23;;;;;;;5.30;3.10;;;19.30;99.90;;;;;;7390635;19;20151;-78
2022/07/17 05:55:49;;;;;;;4.60;2.95;;;19.40;99.90;;;;;;7389145;19;20131;-79
2022/07/17 05:58:15;;;;;;;3.47;2.85;;;19.50;99.90;;;;;;7392422;19;20134;-80
2022/07/17 06:00:41;;;;;;;4.78;3.42;;;19.60;99.90;;;;;;7391340;19;20166;-80
2022/07/17 06:03:07;;;;;;;3.78;3.17;;;19.60;99.90;;;;;;7391691;19;20158;-79
2022/07/17 06:05:33;;;;;;;3.78;3.20;;;19.60;99.90;;;;;;7394527;19;20185;-79
2022/07/17 06:07:59;;;;;;;4.20;3.30;;;19.70;99.90;;;;;;7398830;19;20604;-79
2022/07/17 06:10:26;;;;;;;3.92;3.10;;;19.70;99.90;;;;;;7397490;19;20143;-78
2022/07/17 06:12:52;;;;;;;5.53;3.17;;;19.80;99.90;;;;;;7396424;19;20142;-79
2022/07/17 06:15:22;;;;;;;3.25;2.83;;;19.70;99.90;;;;;;7396498;19;20146;-80
2022/07/17 06:17:48;;;;;;;3.45;3.00;;;19.60;99.90;;;;;;7396881;19;20175;-80
2022/07/17 06:20:16;;;;;;;4.18;3.38;;;19.80;99.90;;;;;;7394812;19;20601;-79
2022/07/17 06:22:43;;;;;;;5.53;3.17;;;20.10;99.70;;;;;;7394569;19;20199;-79
2022/07/17 06:25:10;;;;;;;5.13;3.10;;;20.70;98.60;;;;;;7398911;19;20144;-79
2022/07/17 06:27:38;;;;;;;3.65;3.13;;;21.40;97.60;;;;;;7396336;19;20135;-80
2022/07/17 06:30:04;;;;;;;3.47;2.75;;;21.90;96.50;;;;;;7397056;19;20205;-80
2022/07/17 06:32:30;;;;;;;5.15;2.65;;;22.30;95.50;;;;;;7398713;19;20162;-79
2022/07/17 06:34:56;;;;;;;3.58;2.72;;;22.90;94.30;;;;;;7394276;19;20154;-79
2022/07/17 06:37:21;;;;;;;3.90;2.78;;;23.30;93.20;;;;;;7397744;19;20569;-81
2022/07/17 06:39:47;;;;;;;3.78;2.83;;;23.60;92.40;;;;;;7393892;19;20640;-82
2022/07/17 06:42:13;;;;;;;3.80;3.00;;;23.80;91.90;;;;;;7397510;19;20616;-82
2022/07/17 06:44:39;;;;;;;4.75;2.83;;;24.10;91.40;;;;;;7395372;19;20147;-80
2022/07/17 06:47:04;;;;;;;3.63;2.90;;;24.40;91.00;;;;;;7396923;19;20133;-81
2022/07/17 06:49:30;;;;;;;7.35;2.90;;;24.50;90.70;;;;;;7395164;19;20134;-80
2022/07/17 06:51:59;;;;;;;3.13;2.83;;;24.70;90.30;;;;;;7396110;19;20146;-81
2022/07/17 06:54:25;;;;;;;5.35;2.90;;;24.70;90.00;;;;;;7394565;19;20171;-81
2022/07/17 06:56:54;;;;;;;4.28;2.58;;;25.10;88.40;;;;;;7393688;19;20156;-81
2022/07/17 06:59:20;;;;;;;5.20;2.75;;;25.10;87.60;;;;;;7393528;19;20150;-83
2022/07/17 07:01:46;;;;;;;3.58;2.30;;;24.90;87.50;;;;;;7391201;19;20217;-82
2022/07/17 07:04:12;;;;;;;3.28;2.05;;;24.90;87.10;;;;;;7394923;19;20154;-81
2022/07/17 07:06:38;;;;;;;3.10;2.15;;;24.90;86.70;;;;;;7396792;19;20604;-82
2022/07/17 07:09:04;;;;;;;2.67;2.13;;;24.90;86.50;;;;;;7394335;19;20138;-81
2022/07/17 07:11:30;;;;;;;2.60;1.85;;;24.90;85.90;;;;;;7395561;19;20146;-80
2022/07/17 07:13:55;;;;;;;3.88;2.10;;;25.20;84.90;;;;;;7397334;19;20635;-81
2022/07/17 07:16:21;;;;;;;3.10;2.08;;;25.30;84.10;;;;;;7395163;19;20170;-80
2022/07/17 07:18:47;;;;;;;3.65;2.00;;;25.40;83.70;;;;;;7393837;19;20636;-80
2022/07/17 07:21:13;;;;;;;2.38;1.75;;;25.60;83.20;;;;;;7396340;19;20448;-81
2022/07/17 07:23:39;;;;;;;4.32;1.98;;;25.60;81.80;;;;;;7391194;19;20146;-79
2022/07/17 07:26:05;;;;;;;1.98;1.70;;;25.80;81.80;;;;;;7393181;19;20158;-79
2022/07/17 07:28:30;;;;;;;2.30;1.77;;;25.90;81.60;;;;;;7394562;19;20175;-80
2022/07/17 07:30:56;;;;;;;3.75;1.77;;;25.70;81.20;;;;;;7390765;19;20118;-81
2022/07/17 07:33:22;;;;;;;2.65;1.70;;;25.70;80.90;;;;;;7393151;19;20134;-84
2022/07/17 07:35:48;;;;;;;1.88;1.70;;;25.90;80.60;;;;;;7393876;19;20564;-81
2022/07/17 07:38:13;;;;;;;1.85;1.65;;;25.90;80.50;;;;;;7394881;19;20147;-88
2022/07/17 07:40:39;;;;;;;1.90;1.58;;;25.90;80.30;;;;;;7392393;19;20470;-84
2022/07/17 07:43:05;;;;;;;2.67;1.35;;;25.90;80.00;;;;;;7392457;19;20170;-82
2022/07/17 07:45:31;;;;;;;2.97;1.77;;;26.00;80.00;;;;;;7394230;19;20146;-86
2022/07/17 07:47:57;;;;;;;1.83;1.52;;;26.10;80.50;;;;;;7392873;19;20135;-83
2022/07/17 07:50:25;;;;;;;2.05;1.70;;;26.30;79.90;;;;;;7390585;19;20143;-84
2022/07/17 07:52:51;;;;;;;2.17;1.83;;;26.20;79.30;;;;;;7395537;19;20142;-81
2022/07/17 07:55:17;;;;;;;1.75;1.60;;;26.10;79.30;;;;;;7392041;19;20141;-85
2022/07/17 07:57:43;;;;;;;3.45;1.73;;;26.10;79.10;;;;;;7394315;19;20166;-83
2022/07/17 08:00:11;;;;;;;1.92;1.55;;;26.10;78.90;;;;;;7395036;19;20151;-81
2022/07/17 08:02:37;;;;;;;2.42;1.50;;;26.20;78.80;;;;;;7391270;19;20135;-80
2022/07/17 08:05:04;;;;;;;2.72;1.80;;;26.50;78.20;;;;;;7394281;19;20130;-83
2022/07/17 08:07:30;;;;;;;3.13;1.98;;;26.50;77.10;;;;;;7393818;19;20127;-81
2022/07/17 08:09:57;;;;;;;2.20;1.75;;;26.20;77.50;;;;;;7394399;19;20139;-78
2022/07/17 08:12:23;;;;;;;2.00;1.80;;;26.30;77.20;;;;;;7394398;19;20142;-76
2022/07/17 08:14:49;;;;;;;2.25;1.80;;;26.20;77.50;;;;;;7394092;19;20130;-79
2022/07/17 08:17:15;;;;;;;1.65;1.40;;;26.50;77.90;;;;;;7393225;19;20858;-80
2022/07/17 08:19:41;;;;;;;1.70;1.50;;;27.10;76.40;;;;;;7390989;19;20170;-81
2022/07/17 08:22:07;;;;;;;1.45;1.33;;;27.60;75.30;;;;;;7391634;19;20195;-86
2022/07/17 08:24:32;;;;;;;2.28;1.75;;;27.70;74.90;;;;;;7390128;19;20150;-83
2022/07/17 08:26:58;;;;;;;2.00;1.75;;;27.80;74.20;;;;;;7388311;19;20210;-83
2022/07/17 08:29:24;;;;;;;2.00;1.42;;;27.80;74.30;;;;;;7390736;19;20126;-79
2022/07/17 08:31:50;;;;;;;1.90;1.67;;;27.50;74.30;;;;;;7390939;19;20150;-82
2022/07/17 08:34:16;;;;;;;1.80;1.48;;;27.30;74.80;;;;;;7389152;19;20142;-83
2022/07/17 08:36:42;;;;;;;1.73;1.63;;;27.30;75.00;;;;;;7390236;19;20583;-82
2022/07/17 08:39:08;;;;;;;2.72;1.67;;;27.50;74.50;;;;;;7389719;19;20621;-83
2022/07/17 08:41:38;;;;;;;1.55;1.40;;;27.50;74.20;;;;;;7390914;19;20562;-83
2022/07/17 08:44:08;;;;;;;2.10;1.23;;;27.60;73.90;;;;;;7389532;19;20703;-78
2022/07/17 08:46:39;;;;;;;3.20;1.50;;;27.60;73.60;;;;;;7392609;19;20141;-81
2022/07/17 08:49:06;;;;;;;1.83;1.50;;;27.60;73.60;;;;;;7392786;19;20127;-80
2022/07/17 08:51:33;;;;;;;2.95;1.50;;;27.50;73.20;;;;;;7394762;19;20123;-83
2022/07/17 08:53:59;;;;;;;1.92;1.60;;;27.40;73.40;;;;;;7392428;19;20139;-81
2022/07/17 08:56:28;;;;;;;2.58;2.10;;;27.20;73.60;;;;;;7389808;19;20194;-82
2022/07/17 08:58:55;;;;;;;2.28;1.50;;;27.00;74.20;;;;;;7383445;19;20262;-83
2022/07/17 09:01:22;;;;;;;1.85;1.67;;;27.00;74.10;;;;;;7390571;19;20143;-81
2022/07/17 09:04:06;;;;;;;2.13;1.48;;;26.80;74.20;;;;;;7387868;19;20498;-78
2022/07/17 09:06:33;;;;;;;1.67;1.48;;;26.50;75.30;;;;;;7386705;19;20622;-81
2022/07/17 09:09:12;;;;;;;4.50;1.42;;;26.30;75.20;;;;;;7390657;19;20252;-78
2022/07/17 09:11:50;;;;;;;1.70;1.40;;;26.20;75.70;;;;;;7389842;19;20584;-79
2022/07/17 09:14:17;;;;;;;3.95;1.40;;;26.10;76.20;;;;;;7390205;19;20596;-80
2022/07/17 09:17:00;;;;;;;4.47;1.60;;;26.10;76.20;;;;;;7390611;19;20171;-80
2022/07/17 09:19:34;;;;;;;1.55;1.45;;;26.10;76.60;;;;;;7387091;19;20237;-77
2022/07/17 09:22:12;;;;;;;2.33;1.70;;;26.30;76.20;;;;;;7391045;19;20150;-82
2022/07/17 09:24:43;;;;;;;1.77;1.20;;;26.30;76.20;;;;;;7391271;19;20138;-78
2022/07/17 09:27:11;;;;;;;1.58;1.48;;;26.10;75.70;;;;;;7386644;19;20150;-78
2022/07/17 09:29:51;;;;;;;1.98;1.67;;;26.20;75.80;;;;;;7387664;19;20618;-80
2022/07/17 09:32:23;;;;;;;1.83;1.45;;;26.10;75.40;;;;;;7385003;19;20146;-84
2022/07/17 09:34:51;;;;;;;4.07;1.80;;;26.00;75.50;;;;;;7386469;19;20238;-84
2022/07/17 09:37:18;;;;;;;2.10;1.40;;;26.00;75.50;;;;;;7383876;19;20134;-83
2022/07/17 09:39:44;;;;;;;2.22;1.65;;;26.00;74.40;;;;;;7386089;19;20471;-81
2022/07/17 09:42:22;;;;;;;1.90;1.30;;;26.10;73.80;;;;;;7386170;19;20915;-82
2022/07/17 09:44:55;;;;;;;1.38;1.20;;;26.30;73.30;;;;;;7385526;19;20168;-82
2022/07/17 09:47:23;;;;;;;1.65;1.17;;;26.20;72.50;;;;;;7384763;19;20628;-80
2022/07/17 09:49:49;;;;;;;1.30;1.05;;;26.20;73.30;;;;;;7384441;19;20146;-80
2022/07/17 09:52:16;;;;;;;1.30;1.13;;;26.50;72.60;;;;;;7387392;19;20134;-82
2022/07/17 09:54:47;;;;;;;1.55;1.10;;;26.50;71.40;;;;;;7386082;19;20218;-81
2022/07/17 09:57:14;;;;;;;1.48;1.30;;;26.70;69.40;;;;;;7389457;19;20126;-87
2022/07/17 09:59:42;;;;;;;1.40;1.17;;;26.60;70.70;;;;;;7385655;19;20150;-85
2022/07/17 10:02:12;;;;;;;1.50;1.00;;;26.60;71.20;;;;;;7387934;19;20210;-80
2022/07/17 10:04:39;;;;;;;1.75;1.10;;;26.60;70.90;;;;;;7390006;19;20173;-85
2022/07/17 10:07:05;;;;;;;1.60;1.40;;;26.50;70.30;;;;;;7388007;19;20609;-83
2022/07/17 10:09:32;;;;;;;3.83;1.10;;;26.50;69.80;;;;;;7386730;19;20139;-78
2022/07/17 10:11:58;;;;;;;1.58;1.00;;;26.40;68.50;;;;;;7387268;19;20617;-81
2022/07/17 10:14:25;;;;;;;2.33;1.20;;;26.40;67.30;;;;;;7386953;19;20167;-79
2022/07/17 10:16:51;;;;;;;2.65;1.33;;;26.40;68.60;;;;;;7385828;19;20179;-79
2022/07/17 10:19:20;;;;;;;3.40;1.35;;;26.50;69.10;;;;;;7383583;19;20159;-82
2022/07/17 10:21:56;;;;;;;2.83;1.85;;;26.60;70.50;;;;;;7387888;19;20144;-80
2022/07/17 10:24:23;;;;;;;1.60;1.30;;;26.90;68.00;;;;;;7382361;19;20145;-82
2022/07/17 10:26:49;;;;;;;1.38;1.17;;;27.00;68.00;;;;;;7379561;19;20652;-80
2022/07/17 10:29:33;;;;;;;2.15;1.60;;;27.00;68.00;;;;;;7383452;19;20134;-80
2022/07/17 10:32:03;;;;;;;2.05;1.10;;;27.00;68.00;;;;;;7383733;19;20146;-81
2022/07/17 10:34:47;;;;;;;3.40;1.30;;;26.90;67.90;;;;;;7374554;19;20146;-84
2022/07/17 10:37:33;;;;;;;1.48;1.17;;;26.70;67.50;;;;;;7382724;19;20154;-82
2022/07/17 10:40:10;;;;;;;3.35;1.38;;;26.80;68.40;;;;;;7382233;19;20145;-79
2022/07/17 10:42:41;;;;;;;1.20;1.10;;;27.00;68.00;;;;;;7385752;19;20150;-82
2022/07/17 10:45:13;;;;;;;3.13;1.13;;;27.20;67.40;;;;;;7390275;19;20134;-81
2022/07/17 10:47:50;;;;;;;1.55;1.20;;;27.20;67.70;;;;;;7388629;19;20163;-81
2022/07/17 10:50:18;;;;;;;1.20;1.10;;;27.20;67.10;;;;;;7395952;19;20134;-80
2022/07/17 10:52:44;;;;;;;1.52;1.30;;;27.20;69.70;;;;;;7395505;19;20147;-81
2022/07/17 10:55:21;;;;;;;1.30;1.20;;;27.30;67.70;;;;;;7394703;19;20192;-80
2022/07/17 10:57:48;;;;;;;3.63;1.20;;;27.30;67.30;;;;;;7396845;19;20141;-79
2022/07/17 11:00:16;;;;;;;1.90;1.15;;;27.20;67.00;;;;;;7394228;19;20635;-80
2022/07/17 11:02:43;;;;;;;1.75;1.05;;;27.30;66.80;;;;;;7397841;19;20155;-80
2022/07/17 11:05:12;;;;;;;1.73;1.08;;;27.30;68.20;;;;;;7399557;19;20141;-80
2022/07/17 11:07:58;;;;;;;1.73;1.13;;;27.30;66.30;;;;;;7401580;19;20137;-78
2022/07/17 11:10:26;;;;;;;1.20;1.10;;;27.20;67.30;;;;;;7402533;19;20130;-80
2022/07/17 11:12:54;;;;;;;1.48;1.20;;;27.30;69.10;;;;;;7400825;19;20139;-78
2022/07/17 11:15:21;;;;;;;1.38;1.10;;;27.50;66.40;;;;;;7393826;19;20142;-79
2022/07/17 11:17:49;;;;;;;1.75;1.35;;;27.50;65.50;;;;;;7396267;19;20134;-79
2022/07/17 11:20:15;;;;;;;1.58;1.00;;;27.30;65.70;;;;;;7392292;19;20620;-80
2022/07/17 11:22:43;;;;;;;1.05;1.00;;;27.10;65.00;;;;;;7396648;19;20163;-81
2022/07/17 11:25:11;;;;;;;1.20;1.10;;;27.00;67.00;;;;;;7398120;19;20159;-76
2022/07/17 11:27:38;;;;;;;1.38;1.17;;;27.00;66.10;;;;;;7399022;19;20532;-82
2022/07/17 11:30:05;;;;;;;1.23;1.13;;;27.10;66.40;;;;;;7393034;19;20178;-76
2022/07/17 11:32:37;;;;;;;1.67;1.25;;;27.30;66.00;;;;;;7396623;19;20217;-80
2022/07/17 11:35:15;;;;;;;1.10;1.00;;;27.40;64.10;;;;;;7398485;19;20212;-80
2022/07/17 11:37:41;;;;;;;6.45;2.67;;;27.50;63.40;;;;;;7392814;19;20150;-79
2022/07/17 11:40:07;;;;;;;1.30;1.20;;;27.50;66.30;;;;;;7396678;19;20165;-79
2022/07/17 11:42:33;;;;;;;3.20;1.00;;;27.60;63.80;;;;;;7388292;19;20225;-78
2022/07/17 11:44:59;;;;;;;1.23;1.13;;;27.70;62.00;;;;;;7386834;19;20143;-79
2022/07/17 11:47:28;;;;;;;1.40;1.30;;;27.70;62.20;;;;;;7388304;19;20165;-80
2022/07/17 11:50:13;;;;;;;2.85;1.58;;;27.60;62.60;;;;;;7389336;19;20588;-80
2022/07/17 11:52:50;;;;;;;4.28;1.65;;;27.60;65.50;;;;;;7394482;19;20138;-80
2022/07/17 11:55:17;;;;;;;4.40;1.33;;;27.50;63.80;;;;;;7384654;19;20146;-79
2022/07/17 11:57:48;;;;;;;1.52;1.20;;;27.60;63.00;;;;;;7390144;19;20470;-77
2022/07/17 12:00:19;;;;;;;1.35;1.08;;;27.80;63.60;;;;;;7387697;19;20130;-76
2022/07/17 12:02:46;;;;;;;1.50;1.20;;;27.80;64.20;;;;;;7376252;19;20150;-78
2022/07/17 12:05:12;;;;;;;2.67;1.60;;;27.80;64.80;;;;;;7384802;19;20613;-77
2022/07/17 12:07:45;;;;;;;1.00;0.90;;;28.10;65.40;;;;;;7378692;19;20158;-77
2022/07/17 12:10:22;;;;;;;2.00;1.30;;;28.10;64.90;;;;;;7378125;19;20131;-76
2022/07/17 12:12:59;;;;;;;1.30;1.20;;;28.10;63.80;;;;;;7375997;19;20150;-77
2022/07/17 12:15:45;;;;;;;2.47;1.70;;;28.00;64.20;;;;;;7380033;19;20142;-77
2022/07/17 12:18:28;;;;;;;1.85;1.50;;;28.10;64.40;;;;;;7386923;19;20198;-77
2022/07/17 12:21:01;;;;;;;1.30;1.20;;;28.30;63.70;;;;;;7387306;19;20169;-79
2022/07/17 12:23:34;;;;;;;1.75;1.15;;;28.20;62.80;;;;;;7387270;19;20146;-77
2022/07/17 12:26:16;;;;;;;2.05;1.30;;;28.20;62.10;;;;;;7391706;19;20229;-77
2022/07/17 12:28:43;;;;;;;2.58;2.15;;;28.10;62.90;;;;;;7391625;19;20515;-77
2022/07/17 12:31:09;;;;;;;2.75;1.70;;;28.10;63.20;;;;;;7388579;19;20153;-77
2022/07/17 12:33:35;;;;;;;7.32;3.85;;;28.30;61.40;;;;;;7388899;19;20154;-77
2022/07/17 12:36:01;;;;;;;4.82;2.45;;;28.20;61.90;;;;;;7390984;19;20149;-77
2022/07/17 12:38:27;;;;;;;37.47;13.70;;;28.30;61.90;;;;;;7390087;19;20134;-77
2022/07/17 12:40:53;;;;;;;13.40;5.30;;;28.50;61.50;;;;;;7389455;19;20130;-77
2022/07/17 12:43:19;;;;;;;3.35;1.70;;;28.60;61.80;;;;;;7386858;19;20171;-77
2022/07/17 12:45:45;;;;;;;8.75;4.50;;;28.70;61.70;;;;;;7392203;19;20491;-77
2022/07/17 12:48:11;;;;;;;4.72;2.50;;;28.60;62.00;;;;;;7387623;19;20143;-77